Oshkosh, Nebraska
Current Conditions -  °F | °C
As of 9:15 PM on Tuesday 25 Nov 2014 (Local Time) from KOGA Reporting Station
Overcast Overcast  
Wind Chill: 32°   Ceiling: 6500
Heat Index: 40°   Visibility: 10mi
Dew Point: 32°   Wind: 16mph
Humidity: 73%   Direction: 310°NW
Pressure: 29.97"   Gusts: 23mph
Location:  41.41°N, 102.34°W
Report Text: KOGA 260415Z AUTO 31014G20KT 10SM BKN065 BKN070 OVC085 05/00 A2997 RMK AO2 T00450000
Loading
Personal Weather Stations






























Interactive Weather Map New forecast layout! Learn more

10-Day Weather Forecast

Advertisements
Track Severe Weather on mobile